createdAt,value
2022-12-03T00:02:14.618Z,39.92
2022-12-03T00:04:41.300Z,40.70
2022-12-03T00:07:07.955Z,41.25
2022-12-03T00:09:34.810Z,43.17
2022-12-03T00:12:02.338Z,43.25
2022-12-03T00:14:29.073Z,44.05
2022-12-03T00:16:55.719Z,44.67
2022-12-03T00:19:22.340Z,43.63
2022-12-03T00:21:49.009Z,43.85
2022-12-03T00:24:15.819Z,41.80
2022-12-03T00:26:42.473Z,40.40
2022-12-03T00:29:09.182Z,40.15
2022-12-03T00:31:36.009Z,40.83
2022-12-03T00:34:02.807Z,39.30
2022-12-03T00:36:29.529Z,38.42
2022-12-03T00:38:56.096Z,39.85
2022-12-03T00:41:23.089Z,39.00
2022-12-03T00:43:49.991Z,36.97
2022-12-03T00:46:21.135Z,34.65
2022-12-03T00:48:48.302Z,32.95
2022-12-03T00:51:15.153Z,34.33
2022-12-03T00:53:42.033Z,34.08
2022-12-03T00:56:08.970Z,32.55
2022-12-03T00:58:35.596Z,32.20
2022-12-03T01:01:02.674Z,34.80
2022-12-03T01:03:29.588Z,33.78
2022-12-03T01:05:56.838Z,33.78
2022-12-03T01:08:23.550Z,33.20
2022-12-03T01:10:50.173Z,32.45
2022-12-03T01:13:16.877Z,33.17
2022-12-03T01:15:43.751Z,31.98
2022-12-03T01:18:10.503Z,36.25
2022-12-03T01:20:38.668Z,37.50
2022-12-03T01:23:05.628Z,38.95
2022-12-03T01:25:32.370Z,39.63
2022-12-03T01:27:59.073Z,39.42
2022-12-03T01:30:25.867Z,39.25
2022-12-03T01:32:52.612Z,38.05
2022-12-03T01:35:19.468Z,39.85
2022-12-03T01:37:46.084Z,37.17
2022-12-03T01:40:17.272Z,37.95
2022-12-03T01:42:44.266Z,39.45
2022-12-03T01:45:21.171Z,36.33
2022-12-03T01:47:47.855Z,34.22
2022-12-03T01:50:33.287Z,32.10
2022-12-03T01:53:02.472Z,30.50
2022-12-03T01:55:29.754Z,30.60
2022-12-03T01:57:59.876Z,28.95
2022-12-03T02:00:28.317Z,27.65
2022-12-03T02:02:59.609Z,27.83
2022-12-03T02:05:31.691Z,27.80
2022-12-03T02:07:59.437Z,27.92
2022-12-03T02:10:38.094Z,28.60
2022-12-03T02:13:09.480Z,28.48
2022-12-03T02:15:38.419Z,27.30
2022-12-03T02:18:05.572Z,27.92
2022-12-03T02:20:41.644Z,25.60
2022-12-03T02:23:30.322Z,26.13
2022-12-03T02:25:57.105Z,27.35
2022-12-03T02:28:23.798Z,28.77
2022-12-03T02:30:50.636Z,25.88
2022-12-03T02:33:17.340Z,25.45
2022-12-03T02:35:44.723Z,24.83
2022-12-03T02:38:14.268Z,25.17
2022-12-03T02:40:42.314Z,23.70
2022-12-03T02:43:10.594Z,25.17
2022-12-03T02:45:41.590Z,24.67
2022-12-03T02:48:14.152Z,24.85
2022-12-03T02:50:44.849Z,25.77
2022-12-03T02:53:19.190Z,24.90
2022-12-03T02:55:46.448Z,23.98
2022-12-03T02:58:14.547Z,23.83
2022-12-03T03:00:43.387Z,22.95
2022-12-03T03:03:10.567Z,23.55
2022-12-03T03:05:39.748Z,24.95
2022-12-03T03:08:08.773Z,23.02
2022-12-03T03:10:38.286Z,22.80
2022-12-03T03:13:09.736Z,23.92
2022-12-03T03:15:38.484Z,23.83
2022-12-03T03:18:06.291Z,23.90
2022-12-03T03:20:33.105Z,22.60
2022-12-03T03:23:13.271Z,23.58
2022-12-03T03:25:42.792Z,24.15
2022-12-03T03:28:10.177Z,24.58
2022-12-03T03:30:39.110Z,24.90
2022-12-03T03:33:06.510Z,25.25
2022-12-03T03:35:33.310Z,25.60
2022-12-03T03:38:00.567Z,27.40
2022-12-03T03:40:27.843Z,26.38
2022-12-03T03:42:56.129Z,27.17
2022-12-03T03:45:28.865Z,26.25
2022-12-03T03:47:57.644Z,27.35
2022-12-03T03:50:24.659Z,25.80
2022-12-03T03:52:51.692Z,26.45
2022-12-03T03:55:20.426Z,26.17
2022-12-03T03:57:47.848Z,27.45
2022-12-03T04:00:14.751Z,25.88
2022-12-03T04:02:42.230Z,27.52
2022-12-03T04:05:17.161Z,25.30
2022-12-03T04:07:44.055Z,26.05
2022-12-03T04:10:30.027Z,25.27
2022-12-03T04:12:56.955Z,24.65
2022-12-03T04:15:25.044Z,23.50
2022-12-03T04:18:10.902Z,22.70
2022-12-03T04:20:38.152Z,22.77
2022-12-03T04:23:05.592Z,21.95
2022-12-03T04:25:50.980Z,23.73
2022-12-03T04:28:36.458Z,21.40
2022-12-03T04:31:26.098Z,20.65
2022-12-03T04:34:12.332Z,20.60
2022-12-03T04:36:39.391Z,21.77
2022-12-03T04:39:06.059Z,20.52
2022-12-03T04:41:32.846Z,20.05
2022-12-03T04:44:17.933Z,21.25
2022-12-03T04:46:44.567Z,21.98
2022-12-03T04:49:11.426Z,22.77
2022-12-03T04:51:38.155Z,21.80
2022-12-03T04:54:04.936Z,21.15
2022-12-03T04:56:31.572Z,22.10
2022-12-03T04:58:58.430Z,21.67
2022-12-03T05:01:25.173Z,21.77
2022-12-03T05:03:51.900Z,18.85
2022-12-03T05:06:18.647Z,23.27
2022-12-03T05:08:45.294Z,22.63
2022-12-03T05:11:11.894Z,21.48
2022-12-03T05:13:38.724Z,21.25
2022-12-03T05:16:05.585Z,23.17
2022-12-03T05:18:32.361Z,20.10
2022-12-03T05:20:59.399Z,19.80
2022-12-03T05:23:26.195Z,21.67
2022-12-03T05:25:52.856Z,20.75
2022-12-03T05:28:22.297Z,18.58
2022-12-03T05:30:49.118Z,19.10
2022-12-03T05:33:16.143Z,18.13
2022-12-03T05:35:43.228Z,15.90
2022-12-03T05:38:09.870Z,16.67
2022-12-03T05:40:36.583Z,15.30
2022-12-03T05:43:04.052Z,16.17
2022-12-03T05:45:33.567Z,13.95
2022-12-03T05:48:01.371Z,13.98
2022-12-03T05:50:31.144Z,14.50
2022-12-03T05:52:58.281Z,15.77
2022-12-03T05:55:25.400Z,16.23
2022-12-03T05:57:52.565Z,17.05
2022-12-03T06:00:24.886Z,16.08
2022-12-03T06:02:52.220Z,16.92
2022-12-03T06:05:20.163Z,16.05
2022-12-03T06:07:47.719Z,16.58
2022-12-03T06:10:16.971Z,16.42
2022-12-03T06:12:44.518Z,16.50
2022-12-03T06:15:12.032Z,15.57
2022-12-03T06:17:38.638Z,18.10
2022-12-03T06:20:05.995Z,19.33
2022-12-03T06:22:32.841Z,18.60
2022-12-03T06:25:04.863Z,17.17
2022-12-03T06:27:33.871Z,16.75
2022-12-03T06:30:00.503Z,18.10
2022-12-03T06:32:27.119Z,15.95
2022-12-03T06:34:53.988Z,17.30
2022-12-03T06:37:20.828Z,16.85
2022-12-03T06:39:47.550Z,16.27
2022-12-03T06:42:14.839Z,15.18
2022-12-03T06:44:41.401Z,12.90
2022-12-03T06:47:08.055Z,13.88
2022-12-03T06:49:35.163Z,13.77
2022-12-03T06:52:01.883Z,13.52
2022-12-03T06:54:28.556Z,13.77
2022-12-03T06:56:55.459Z,14.05
2022-12-03T06:59:22.145Z,14.07
2022-12-03T07:01:48.856Z,12.98
2022-12-03T07:04:15.828Z,13.70
2022-12-03T07:06:42.442Z,13.60
2022-12-03T07:09:09.308Z,11.95
2022-12-03T07:11:42.099Z,12.75
2022-12-03T07:14:11.271Z,12.88
2022-12-03T07:16:39.072Z,13.18
2022-12-03T07:19:06.937Z,13.82
2022-12-03T07:21:33.698Z,13.30
2022-12-03T07:24:00.493Z,15.32
2022-12-03T07:26:27.414Z,14.60
2022-12-03T07:28:54.047Z,15.85
2022-12-03T07:31:20.798Z,15.23
2022-12-03T07:33:47.609Z,15.90
2022-12-03T07:36:14.285Z,13.30
2022-12-03T07:38:40.913Z,12.10
2022-12-03T07:41:08.110Z,13.65
2022-12-03T07:43:34.755Z,13.60
2022-12-03T07:46:01.563Z,12.20
2022-12-03T07:48:28.122Z,11.70
2022-12-03T07:50:54.770Z,12.15
2022-12-03T07:53:21.693Z,11.80
2022-12-03T07:55:48.456Z,12.98
2022-12-03T07:58:15.063Z,14.80
2022-12-03T08:00:42.018Z,15.00
2022-12-03T08:03:08.874Z,16.00
2022-12-03T08:05:35.824Z,20.35
2022-12-03T08:08:02.528Z,17.40
2022-12-03T08:10:29.308Z,17.40
2022-12-03T08:12:59.249Z,16.25
2022-12-03T08:15:32.229Z,15.48
2022-12-03T08:18:12.255Z,16.40
2022-12-03T08:20:40.972Z,15.95
2022-12-03T08:23:14.151Z,16.25
2022-12-03T08:25:41.895Z,17.48
2022-12-03T08:28:22.072Z,16.67
2022-12-03T08:31:02.625Z,16.17
2022-12-03T08:33:36.069Z,15.20
2022-12-03T08:36:08.546Z,15.95
2022-12-03T08:38:35.224Z,15.45
2022-12-03T08:41:40.390Z,14.65
2022-12-03T08:44:29.110Z,17.13
2022-12-03T08:47:20.083Z,15.57
2022-12-03T08:49:58.182Z,15.05
2022-12-03T08:52:31.829Z,16.83
2022-12-03T08:55:00.228Z,16.67
2022-12-03T08:57:30.050Z,16.58
2022-12-03T09:00:17.102Z,15.60
2022-12-03T09:02:49.379Z,16.15
2022-12-03T09:05:20.936Z,17.10
2022-12-03T09:07:48.004Z,16.40
2022-12-03T09:10:15.491Z,16.50
2022-12-03T09:12:42.214Z,15.70
2022-12-03T09:15:09.572Z,16.45
2022-12-03T09:17:37.013Z,17.02
2022-12-03T09:20:05.062Z,18.35
2022-12-03T09:22:32.009Z,17.67
2022-12-03T09:24:58.810Z,17.95
2022-12-03T09:27:25.551Z,19.13
2022-12-03T09:29:52.430Z,18.70
2022-12-03T09:32:19.215Z,19.60
2022-12-03T09:34:46.173Z,22.92
2022-12-03T09:37:13.022Z,22.83
2022-12-03T09:39:39.675Z,22.92
2022-12-03T09:42:06.792Z,24.98
2022-12-03T09:44:35.097Z,24.88
2022-12-03T09:47:03.249Z,25.48
2022-12-03T09:49:32.301Z,23.02
2022-12-03T09:52:01.483Z,21.73
2022-12-03T09:54:30.279Z,23.65
2022-12-03T09:57:02.658Z,23.10
2022-12-03T09:59:34.392Z,23.23
2022-12-03T10:02:02.744Z,21.33
2022-12-03T10:04:30.628Z,19.00
2022-12-03T10:06:59.024Z,20.73
2022-12-03T10:09:28.904Z,19.90
2022-12-03T10:12:00.122Z,18.77
2022-12-03T10:14:27.981Z,18.77
2022-12-03T10:16:54.973Z,18.98
2022-12-03T10:19:29.292Z,18.52
2022-12-03T10:21:55.947Z,17.67
2022-12-03T10:24:22.631Z,18.15
2022-12-03T10:26:51.090Z,15.90
2022-12-03T10:29:20.824Z,16.50
2022-12-03T10:31:59.340Z,16.80
2022-12-03T10:34:35.019Z,16.98
2022-12-03T10:37:22.134Z,16.88
2022-12-03T10:40:02.111Z,17.80
2022-12-03T10:42:32.018Z,16.75
2022-12-03T10:45:23.029Z,15.43
2022-12-03T10:48:06.579Z,16.65
2022-12-03T10:50:34.720Z,17.50
2022-12-03T10:53:01.619Z,17.92
2022-12-03T10:55:34.587Z,20.67
2022-12-03T10:58:01.285Z,20.67
2022-12-03T11:00:27.882Z,21.25
2022-12-03T11:02:56.980Z,21.77
2022-12-03T11:05:28.411Z,21.42
2022-12-03T11:07:56.613Z,22.33
2022-12-03T11:10:24.108Z,21.92
2022-12-03T11:13:39.173Z,21.10
2022-12-03T11:16:08.176Z,22.05
2022-12-03T11:18:37.770Z,23.17
2022-12-03T11:21:14.921Z,21.48
2022-12-03T11:23:44.959Z,20.23
2022-12-03T11:26:39.178Z,21.02
2022-12-03T11:29:14.507Z,19.90
2022-12-03T11:31:46.714Z,21.90
2022-12-03T11:34:16.779Z,21.73
2022-12-03T11:37:11.389Z,21.83
2022-12-03T11:40:05.486Z,21.80
2022-12-03T11:42:40.623Z,20.45
2022-12-03T11:45:08.573Z,20.63
2022-12-03T11:48:03.433Z,20.60
2022-12-03T11:53:13.350Z,21.30
2022-12-03T11:55:48.514Z,20.87
2022-12-03T11:58:27.950Z,21.23
2022-12-03T12:00:57.440Z,20.65
2022-12-03T12:03:33.407Z,20.65
2022-12-03T12:06:00.478Z,21.35
2022-12-03T12:08:27.058Z,21.00
2022-12-03T12:10:53.885Z,20.42
2022-12-03T12:13:32.678Z,19.83
2022-12-03T12:16:01.162Z,20.88
2022-12-03T12:18:55.095Z,19.60
2022-12-03T12:21:43.828Z,20.30
2022-12-03T12:24:35.877Z,19.17
2022-12-03T12:27:14.146Z,18.30
2022-12-03T12:29:42.892Z,20.13
2022-12-03T12:32:09.880Z,20.25
2022-12-03T12:34:40.562Z,19.23
2022-12-03T12:37:16.772Z,20.58
2022-12-03T12:39:43.587Z,20.63
2022-12-03T12:42:19.972Z,20.42
2022-12-03T12:44:46.769Z,19.95
2022-12-03T12:47:13.540Z,20.23
2022-12-03T12:49:40.257Z,20.90
2022-12-03T12:52:13.718Z,20.17
2022-12-03T12:54:40.840Z,21.45
2022-12-03T12:57:22.179Z,21.25
2022-12-03T12:59:49.378Z,19.35
2022-12-03T13:02:41.905Z,20.88
2022-12-03T13:05:11.677Z,19.80
2022-12-03T13:07:39.361Z,20.02
2022-12-03T13:10:21.735Z,19.77
2022-12-03T13:12:48.378Z,19.58
2022-12-03T13:15:47.778Z,19.95
2022-12-03T13:18:21.886Z,20.45
2022-12-03T13:20:48.748Z,19.55
2022-12-03T13:23:27.233Z,20.05
2022-12-03T13:26:02.275Z,20.73
2022-12-03T13:28:36.121Z,19.63
2022-12-03T13:31:26.190Z,19.75
2022-12-03T13:33:54.169Z,20.80
2022-12-03T13:36:24.230Z,20.98
2022-12-03T13:38:51.232Z,20.58
2022-12-03T13:41:39.679Z,19.58
2022-12-03T13:44:16.256Z,20.60
2022-12-03T13:46:43.227Z,20.77
2022-12-03T13:49:21.102Z,20.52
2022-12-03T13:51:48.410Z,20.05
2022-12-03T13:54:24.123Z,18.42
2022-12-03T13:56:50.981Z,18.27
2022-12-03T13:59:20.340Z,18.80
2022-12-03T14:01:49.892Z,19.58
2022-12-03T14:04:16.746Z,19.60
2022-12-03T14:06:43.397Z,18.95
2022-12-03T14:09:10.134Z,19.20
2022-12-03T14:11:55.241Z,17.90
2022-12-03T14:14:21.952Z,18.35
2022-12-03T14:16:48.873Z,18.83
2022-12-03T14:19:15.540Z,19.48
2022-12-03T14:21:42.492Z,18.20
2022-12-03T14:24:09.265Z,17.40
2022-12-03T14:26:35.910Z,16.98
2022-12-03T14:29:08.452Z,18.02
2022-12-03T14:31:35.641Z,17.95
2022-12-03T14:34:02.389Z,17.88
2022-12-03T14:36:29.239Z,17.55
2022-12-03T14:38:56.279Z,16.75
2022-12-03T14:41:41.561Z,16.73
2022-12-03T14:44:08.328Z,16.52
2022-12-03T14:46:34.913Z,18.23
2022-12-03T14:49:01.628Z,17.50
2022-12-03T14:51:28.491Z,16.55
2022-12-03T14:53:55.108Z,16.92
2022-12-03T14:56:21.944Z,18.77
2022-12-03T14:58:51.620Z,17.05
2022-12-03T15:01:18.426Z,18.77
2022-12-03T15:03:45.221Z,19.13
2022-12-03T15:06:11.970Z,18.67
2022-12-03T15:08:38.623Z,18.70
2022-12-03T15:11:05.486Z,17.92
2022-12-03T15:13:32.638Z,18.75
2022-12-03T15:15:59.571Z,17.70
2022-12-03T15:18:26.428Z,16.77
2022-12-03T15:20:53.284Z,17.63
2022-12-03T15:23:19.982Z,17.10
2022-12-03T15:25:47.406Z,16.40
2022-12-03T15:28:14.208Z,16.90
2022-12-03T15:30:40.869Z,15.52
2022-12-03T15:33:12.523Z,18.45
2022-12-03T15:35:39.295Z,16.75
2022-12-03T15:38:05.902Z,17.38
2022-12-03T15:40:33.020Z,16.30
2022-12-03T15:42:59.904Z,17.45
2022-12-03T15:45:26.674Z,18.23
2022-12-03T15:47:53.492Z,19.15
2022-12-03T15:50:20.194Z,19.63
2022-12-03T15:52:47.484Z,18.85
2022-12-03T15:55:14.267Z,20.33
2022-12-03T15:57:41.106Z,18.58
2022-12-03T16:00:09.481Z,18.45
2022-12-03T16:02:40.811Z,21.52
2022-12-03T16:05:10.324Z,20.13
2022-12-03T16:07:37.630Z,19.90
2022-12-03T16:10:06.067Z,18.88
2022-12-03T16:12:32.885Z,18.50
2022-12-03T16:14:59.618Z,20.17
2022-12-03T16:17:26.312Z,19.25
2022-12-03T16:19:53.484Z,18.67
2022-12-03T16:22:20.402Z,18.85
2022-12-03T16:24:47.881Z,21.88
2022-12-03T16:27:14.659Z,22.15
2022-12-03T16:29:41.285Z,21.83
2022-12-03T16:32:08.017Z,21.60
2022-12-03T16:34:34.650Z,23.02
2022-12-03T16:37:01.359Z,21.05
2022-12-03T16:39:28.235Z,22.33
2022-12-03T16:41:55.034Z,21.75
2022-12-03T16:44:32.747Z,23.85
2022-12-03T16:47:00.617Z,30.70
2022-12-03T16:49:27.880Z,23.08
2022-12-03T16:51:54.629Z,26.42
2022-12-03T16:54:21.586Z,29.05
2022-12-03T16:56:48.762Z,28.00
2022-12-03T16:59:15.863Z,28.58
2022-12-03T17:01:42.972Z,32.53
2022-12-03T17:04:09.604Z,35.72
2022-12-03T17:06:36.563Z,31.67
2022-12-03T17:09:03.493Z,35.05
2022-12-03T17:11:30.208Z,51.17
2022-12-03T17:13:56.935Z,75.47
2022-12-03T17:16:23.956Z,78.45
2022-12-03T17:18:50.620Z,79.60
2022-12-03T17:21:17.643Z,118.32
2022-12-03T17:23:46.266Z,100.95
2022-12-03T17:26:12.851Z,74.80
2022-12-03T17:28:39.754Z,75.72
2022-12-03T17:31:06.673Z,145.38
2022-12-03T17:33:33.337Z,98.07
2022-12-03T17:36:00.008Z,112.50
2022-12-03T17:38:26.782Z,163.13
2022-12-03T17:40:53.591Z,98.03
2022-12-03T17:43:20.829Z,109.90
2022-12-03T17:45:47.740Z,117.57
2022-12-03T17:48:14.463Z,83.88
2022-12-03T17:50:45.423Z,89.30
2022-12-03T17:53:12.143Z,86.13
2022-12-03T17:55:44.589Z,77.55
2022-12-03T17:58:12.167Z,67.55
2022-12-03T18:00:39.200Z,74.80
2022-12-03T18:03:05.791Z,69.93
2022-12-03T18:05:32.731Z,65.70
2022-12-03T18:07:59.320Z,60.42
2022-12-03T18:10:25.959Z,59.53
2022-12-03T18:12:54.851Z,51.78
2022-12-03T18:15:25.239Z,49.65
2022-12-03T18:17:52.252Z,44.30
2022-12-03T18:20:19.307Z,45.55
2022-12-03T18:22:46.207Z,52.67
2022-12-03T18:25:13.482Z,63.38
2022-12-03T18:27:40.599Z,70.85
2022-12-03T18:30:07.781Z,81.70
2022-12-03T18:32:34.473Z,83.07
2022-12-03T18:35:01.165Z,82.65
2022-12-03T18:37:29.296Z,80.13
2022-12-03T18:39:57.590Z,77.00
2022-12-03T18:42:25.117Z,77.07
2022-12-03T18:44:54.697Z,79.68
2022-12-03T18:47:27.710Z,76.65
2022-12-03T18:49:54.958Z,76.72
2022-12-03T18:52:23.331Z,77.22
2022-12-03T18:54:50.019Z,85.47
2022-12-03T18:57:16.698Z,82.47
2022-12-03T18:59:43.353Z,81.40
2022-12-03T19:02:38.350Z,82.97
2022-12-03T19:05:07.489Z,77.72
2022-12-03T19:07:34.896Z,76.53
2022-12-03T19:10:01.671Z,74.00
2022-12-03T19:12:28.508Z,73.22
2022-12-03T19:14:59.364Z,68.82
2022-12-03T19:17:27.286Z,68.22
2022-12-03T19:19:54.997Z,67.82
2022-12-03T19:22:21.975Z,60.42
2022-12-03T19:24:48.657Z,54.05
2022-12-03T19:27:15.495Z,50.40
2022-12-03T19:29:42.814Z,52.58
2022-12-03T19:32:09.511Z,53.05
2022-12-03T19:34:36.274Z,53.38
2022-12-03T19:37:03.248Z,44.45
2022-12-03T19:39:29.809Z,52.70
2022-12-03T19:41:56.620Z,41.95
2022-12-03T19:44:23.783Z,20.23
2022-12-03T19:46:50.685Z,19.77
2022-12-03T19:49:20.861Z,18.08
2022-12-03T19:51:47.916Z,17.50
2022-12-03T19:54:14.852Z,17.45
2022-12-03T19:56:41.652Z,17.95
2022-12-03T19:59:08.788Z,17.52
2022-12-03T20:01:36.801Z,18.20
2022-12-03T20:04:04.287Z,17.42
2022-12-03T20:06:35.958Z,17.27
2022-12-03T20:09:09.089Z,17.40
2022-12-03T20:11:36.479Z,18.25
2022-12-03T20:14:07.971Z,17.70
2022-12-03T20:16:35.527Z,17.25
2022-12-03T20:19:05.762Z,18.58
2022-12-03T20:21:35.014Z,18.42
2022-12-03T20:24:02.108Z,20.67
2022-12-03T20:26:29.511Z,18.15
2022-12-03T20:28:57.106Z,18.70
2022-12-03T20:31:26.250Z,17.88
2022-12-03T20:34:00.983Z,18.70
2022-12-03T20:36:29.127Z,18.33
2022-12-03T20:38:58.290Z,18.58
2022-12-03T20:41:25.111Z,16.63
2022-12-03T20:43:53.090Z,18.02
2022-12-03T20:46:22.929Z,18.48
2022-12-03T20:48:49.748Z,18.58
2022-12-03T20:51:19.661Z,16.20
2022-12-03T20:53:46.676Z,17.17
2022-12-03T20:56:21.567Z,16.92
2022-12-03T20:58:49.110Z,17.52
2022-12-03T21:01:19.112Z,16.58
2022-12-03T21:03:47.291Z,17.73
2022-12-03T21:06:15.633Z,17.55
2022-12-03T21:08:43.736Z,16.73
2022-12-03T21:11:24.075Z,16.02
2022-12-03T21:13:51.698Z,17.45
2022-12-03T21:16:39.493Z,15.10
2022-12-03T21:19:08.879Z,14.35
2022-12-03T21:21:36.516Z,13.50
2022-12-03T21:24:03.412Z,13.77
2022-12-03T21:26:30.186Z,13.95
2022-12-03T21:28:56.913Z,15.10
2022-12-03T21:31:26.350Z,15.63
2022-12-03T21:33:54.803Z,14.45
2022-12-03T21:36:21.961Z,15.77
2022-12-03T21:38:48.788Z,14.25
2022-12-03T21:41:16.196Z,14.57
2022-12-03T21:43:43.778Z,14.48
2022-12-03T21:47:09.877Z,15.32
2022-12-03T21:49:02.169Z,14.68
2022-12-03T21:51:28.812Z,14.13
2022-12-03T21:53:55.414Z,13.95
2022-12-03T21:56:22.435Z,15.80
2022-12-03T21:58:49.119Z,14.68
2022-12-03T22:01:21.978Z,14.85
2022-12-03T22:03:49.083Z,13.63
2022-12-03T22:06:15.998Z,13.20
2022-12-03T22:08:43.048Z,13.23
2022-12-03T22:11:13.074Z,13.50
2022-12-03T22:13:40.651Z,13.18
2022-12-03T22:16:13.248Z,14.23
2022-12-03T22:18:40.286Z,14.02
2022-12-03T22:21:10.096Z,13.50
2022-12-03T22:23:37.250Z,13.73
2022-12-03T22:26:08.346Z,13.93
2022-12-03T22:28:35.098Z,14.75
2022-12-03T22:31:09.133Z,15.63
2022-12-03T22:36:08.345Z,14.98
2022-12-03T22:38:35.027Z,14.55
2022-12-03T22:41:06.296Z,14.30
2022-12-03T22:43:33.823Z,13.95
2022-12-03T22:46:00.864Z,13.65
2022-12-03T22:48:27.730Z,12.85
2022-12-03T22:50:54.353Z,13.27
2022-12-03T22:53:21.345Z,14.43
2022-12-03T22:55:56.024Z,14.88
2022-12-03T22:58:23.443Z,13.63
2022-12-03T23:00:50.724Z,13.40
2022-12-03T23:03:18.100Z,13.38
2022-12-03T23:05:44.918Z,13.77
2022-12-03T23:08:14.968Z,12.00
2022-12-03T23:10:43.965Z,11.20
2022-12-03T23:13:11.288Z,11.25
2022-12-03T23:15:38.644Z,11.18
2022-12-03T23:18:05.447Z,12.88
2022-12-03T23:20:32.190Z,11.38
2022-12-03T23:22:58.836Z,12.35
2022-12-03T23:25:25.869Z,12.90
2022-12-03T23:27:52.540Z,13.77
2022-12-03T23:30:19.218Z,14.75
2022-12-03T23:32:46.223Z,15.85
2022-12-03T23:35:13.547Z,12.60
2022-12-03T23:37:44.060Z,12.38
2022-12-03T23:40:12.147Z,14.23
2022-12-03T23:42:38.747Z,13.70
2022-12-03T23:45:05.823Z,14.07
2022-12-03T23:47:32.846Z,14.23
2022-12-03T23:49:59.419Z,13.93
2022-12-03T23:52:26.083Z,14.57
2022-12-03T23:54:53.021Z,14.02
2022-12-03T23:57:19.665Z,14.35
2022-12-03T23:59:46.419Z,14.35
